sensor_id;sensor_type;location;lat;lon;timestamp;P1;durP1;ratioP1;P2;durP2;ratioP2
60426;SDS011;46274;47.168;27.604;2023-04-07T00:00:05;6.07;;;2.57;;
60426;SDS011;46274;47.168;27.604;2023-04-07T00:06:09;5.33;;;3.17;;
60426;SDS011;46274;47.168;27.604;2023-04-07T00:12:13;8.53;;;3.93;;
60426;SDS011;46274;47.168;27.604;2023-04-07T00:18:15;8.00;;;5.20;;
60426;SDS011;46274;47.168;27.604;2023-04-07T00:24:17;9.33;;;4.47;;
60426;SDS011;46274;47.168;27.604;2023-04-07T00:30:33;6.60;;;3.37;;
60426;SDS011;46274;47.168;27.604;2023-04-07T00:36:37;6.77;;;3.53;;
60426;SDS011;46274;47.168;27.604;2023-04-07T00:42:39;7.07;;;4.27;;
60426;SDS011;46274;47.168;27.604;2023-04-07T00:48:41;8.20;;;4.40;;
60426;SDS011;46274;47.168;27.604;2023-04-07T00:54:47;9.47;;;4.93;;
60426;SDS011;46274;47.168;27.604;2023-04-07T01:01:12;5.57;;;3.50;;
60426;SDS011;46274;47.168;27.604;2023-04-07T01:07:22;8.40;;;3.47;;
60426;SDS011;46274;47.168;27.604;2023-04-07T01:13:35;5.90;;;3.50;;
60426;SDS011;46274;47.168;27.604;2023-04-07T01:32:20;6.90;;;4.00;;
60426;SDS011;46274;47.168;27.604;2023-04-07T01:38:26;8.30;;;4.70;;
60426;SDS011;46274;47.168;27.604;2023-04-07T01:44:30;6.53;;;3.60;;
60426;SDS011;46274;47.168;27.604;2023-04-07T01:50:33;7.27;;;3.60;;
60426;SDS011;46274;47.168;27.604;2023-04-07T01:56:39;8.40;;;3.93;;
60426;SDS011;46274;47.168;27.604;2023-04-07T02:02:43;6.87;;;4.03;;
60426;SDS011;46274;47.168;27.604;2023-04-07T02:08:48;10.33;;;4.73;;
60426;SDS011;46274;47.168;27.604;2023-04-07T02:14:59;5.27;;;3.57;;
60426;SDS011;46274;47.168;27.604;2023-04-07T02:21:02;6.67;;;3.80;;
60426;SDS011;46274;47.168;27.604;2023-04-07T02:27:07;6.90;;;4.10;;
60426;SDS011;46274;47.168;27.604;2023-04-07T02:33:10;6.67;;;3.70;;
60426;SDS011;46274;47.168;27.604;2023-04-07T02:39:12;7.17;;;4.07;;
60426;SDS011;46274;47.168;27.604;2023-04-07T02:45:18;7.17;;;3.93;;
60426;SDS011;46274;47.168;27.604;2023-04-07T02:51:21;5.80;;;3.23;;
60426;SDS011;46274;47.168;27.604;2023-04-07T02:57:26;6.07;;;3.23;;
60426;SDS011;46274;47.168;27.604;2023-04-07T03:03:30;8.50;;;4.63;;
60426;SDS011;46274;47.168;27.604;2023-04-07T03:09:36;18.10;;;12.83;;
60426;SDS011;46274;47.168;27.604;2023-04-07T03:15:40;9.13;;;5.60;;
60426;SDS011;46274;47.168;27.604;2023-04-07T03:21:42;8.57;;;5.87;;
60426;SDS011;46274;47.168;27.604;2023-04-07T03:27:46;8.37;;;4.47;;
60426;SDS011;46274;47.168;27.604;2023-04-07T03:33:49;6.30;;;4.27;;
60426;SDS011;46274;47.168;27.604;2023-04-07T03:39:52;8.30;;;5.10;;
60426;SDS011;46274;47.168;27.604;2023-04-07T03:45:54;6.60;;;4.47;;
60426;SDS011;46274;47.168;27.604;2023-04-07T03:51:59;7.90;;;3.90;;
60426;SDS011;46274;47.168;27.604;2023-04-07T03:58:01;6.33;;;3.57;;
60426;SDS011;46274;47.168;27.604;2023-04-07T04:04:04;9.67;;;5.40;;
60426;SDS011;46274;47.168;27.604;2023-04-07T04:10:09;8.43;;;5.17;;
60426;SDS011;46274;47.168;27.604;2023-04-07T04:16:11;21.70;;;13.17;;
60426;SDS011;46274;47.168;27.604;2023-04-07T04:22:21;73.93;;;40.90;;
60426;SDS011;46274;47.168;27.604;2023-04-07T04:28:25;47.30;;;27.17;;
60426;SDS011;46274;47.168;27.604;2023-04-07T04:34:39;26.77;;;15.77;;
60426;SDS011;46274;47.168;27.604;2023-04-07T04:40:46;34.43;;;17.47;;
60426;SDS011;46274;47.168;27.604;2023-04-07T04:46:52;23.13;;;14.17;;
60426;SDS011;46274;47.168;27.604;2023-04-07T04:52:54;13.17;;;8.20;;
60426;SDS011;46274;47.168;27.604;2023-04-07T04:58:57;16.33;;;9.30;;
60426;SDS011;46274;47.168;27.604;2023-04-07T05:04:59;13.83;;;8.43;;
60426;SDS011;46274;47.168;27.604;2023-04-07T05:11:02;18.93;;;10.53;;
60426;SDS011;46274;47.168;27.604;2023-04-07T05:17:04;18.03;;;10.20;;
60426;SDS011;46274;47.168;27.604;2023-04-07T05:23:07;20.10;;;10.90;;
60426;SDS011;46274;47.168;27.604;2023-04-07T05:29:09;19.90;;;11.57;;
60426;SDS011;46274;47.168;27.604;2023-04-07T05:35:12;20.00;;;10.30;;
60426;SDS011;46274;47.168;27.604;2023-04-07T05:41:15;16.97;;;9.90;;
60426;SDS011;46274;47.168;27.604;2023-04-07T05:47:18;19.90;;;11.03;;
60426;SDS011;46274;47.168;27.604;2023-04-07T05:53:23;20.83;;;11.37;;
60426;SDS011;46274;47.168;27.604;2023-04-07T05:59:35;21.43;;;12.40;;
60426;SDS011;46274;47.168;27.604;2023-04-07T06:05:45;18.30;;;10.60;;
60426;SDS011;46274;47.168;27.604;2023-04-07T06:11:50;14.47;;;8.80;;
60426;SDS011;46274;47.168;27.604;2023-04-07T06:17:53;17.47;;;10.87;;
60426;SDS011;46274;47.168;27.604;2023-04-07T06:23:55;16.10;;;9.60;;
60426;SDS011;46274;47.168;27.604;2023-04-07T06:29:58;20.40;;;11.77;;
60426;SDS011;46274;47.168;27.604;2023-04-07T06:36:00;16.87;;;9.47;;
60426;SDS011;46274;47.168;27.604;2023-04-07T06:42:03;14.63;;;9.93;;
60426;SDS011;46274;47.168;27.604;2023-04-07T06:48:05;14.13;;;9.03;;
60426;SDS011;46274;47.168;27.604;2023-04-07T06:54:08;16.10;;;9.73;;
60426;SDS011;46274;47.168;27.604;2023-04-07T07:00:14;15.63;;;10.13;;
60426;SDS011;46274;47.168;27.604;2023-04-07T07:06:17;17.67;;;10.37;;
60426;SDS011;46274;47.168;27.604;2023-04-07T07:12:19;16.17;;;8.47;;
60426;SDS011;46274;47.168;27.604;2023-04-07T07:18:21;14.53;;;8.80;;
60426;SDS011;46274;47.168;27.604;2023-04-07T07:24:25;16.40;;;8.47;;
60426;SDS011;46274;47.168;27.604;2023-04-07T07:30:29;14.20;;;8.50;;
60426;SDS011;46274;47.168;27.604;2023-04-07T07:36:32;17.97;;;9.70;;
60426;SDS011;46274;47.168;27.604;2023-04-07T07:42:34;12.77;;;7.97;;
60426;SDS011;46274;47.168;27.604;2023-04-07T07:48:37;14.43;;;8.20;;
60426;SDS011;46274;47.168;27.604;2023-04-07T07:54:39;12.97;;;7.63;;
60426;SDS011;46274;47.168;27.604;2023-04-07T08:00:42;13.27;;;8.23;;
60426;SDS011;46274;47.168;27.604;2023-04-07T08:06:44;10.70;;;7.07;;
60426;SDS011;46274;47.168;27.604;2023-04-07T08:12:47;12.20;;;7.17;;
60426;SDS011;46274;47.168;27.604;2023-04-07T08:18:49;10.83;;;7.13;;
60426;SDS011;46274;47.168;27.604;2023-04-07T08:24:51;12.13;;;7.00;;
60426;SDS011;46274;47.168;27.604;2023-04-07T08:30:56;10.83;;;6.60;;
60426;SDS011;46274;47.168;27.604;2023-04-07T08:37:00;10.27;;;6.77;;
60426;SDS011;46274;47.168;27.604;2023-04-07T08:43:06;13.33;;;6.60;;
60426;SDS011;46274;47.168;27.604;2023-04-07T08:49:11;12.50;;;7.10;;
60426;SDS011;46274;47.168;27.604;2023-04-07T08:55:16;10.10;;;6.37;;
60426;SDS011;46274;47.168;27.604;2023-04-07T09:01:18;10.17;;;6.73;;
60426;SDS011;46274;47.168;27.604;2023-04-07T09:07:22;34.90;;;18.03;;
60426;SDS011;46274;47.168;27.604;2023-04-07T09:13:24;33.77;;;18.43;;
60426;SDS011;46274;47.168;27.604;2023-04-07T09:19:27;15.47;;;11.20;;
60426;SDS011;46274;47.168;27.604;2023-04-07T09:25:31;10.37;;;6.40;;
60426;SDS011;46274;47.168;27.604;2023-04-07T09:31:45;11.70;;;7.53;;
60426;SDS011;46274;47.168;27.604;2023-04-07T09:37:59;11.43;;;7.40;;
60426;SDS011;46274;47.168;27.604;2023-04-07T09:44:04;11.87;;;7.50;;
60426;SDS011;46274;47.168;27.604;2023-04-07T09:50:08;11.50;;;7.10;;
60426;SDS011;46274;47.168;27.604;2023-04-07T09:56:22;7.87;;;5.70;;
60426;SDS011;46274;47.168;27.604;2023-04-07T10:02:24;9.83;;;6.67;;
60426;SDS011;46274;47.168;27.604;2023-04-07T10:08:28;8.37;;;6.37;;
60426;SDS011;46274;47.168;27.604;2023-04-07T10:14:33;6.83;;;4.87;;
60426;SDS011;46274;47.168;27.604;2023-04-07T10:20:39;6.73;;;4.30;;
60426;SDS011;46274;47.168;27.604;2023-04-07T10:26:43;8.63;;;4.80;;
60426;SDS011;46274;47.168;27.604;2023-04-07T10:32:49;10.03;;;5.60;;
60426;SDS011;46274;47.168;27.604;2023-04-07T10:39:36;12.13;;;7.63;;
60426;SDS011;46274;47.168;27.604;2023-04-07T10:45:50;16.77;;;7.50;;
60426;SDS011;46274;47.168;27.604;2023-04-07T10:52:29;10.17;;;6.47;;
60426;SDS011;46274;47.168;27.604;2023-04-07T10:58:18;11.63;;;7.27;;
60426;SDS011;46274;47.168;27.604;2023-04-07T11:04:36;12.67;;;6.50;;
60426;SDS011;46274;47.168;27.604;2023-04-07T11:10:46;16.57;;;7.30;;
60426;SDS011;46274;47.168;27.604;2023-04-07T11:16:49;8.43;;;5.40;;
60426;SDS011;46274;47.168;27.604;2023-04-07T11:22:59;10.77;;;5.00;;
60426;SDS011;46274;47.168;27.604;2023-04-07T11:29:01;9.80;;;5.23;;
60426;SDS011;46274;47.168;27.604;2023-04-07T11:35:07;6.93;;;4.30;;
60426;SDS011;46274;47.168;27.604;2023-04-07T11:41:11;13.10;;;5.20;;
60426;SDS011;46274;47.168;27.604;2023-04-07T11:47:14;7.73;;;4.63;;
60426;SDS011;46274;47.168;27.604;2023-04-07T11:53:24;11.70;;;7.53;;
60426;SDS011;46274;47.168;27.604;2023-04-07T11:59:29;14.40;;;7.77;;
60426;SDS011;46274;47.168;27.604;2023-04-07T12:05:42;24.73;;;6.47;;
60426;SDS011;46274;47.168;27.604;2023-04-07T12:11:48;4.97;;;3.27;;
60426;SDS011;46274;47.168;27.604;2023-04-07T12:17:51;7.40;;;3.87;;
60426;SDS011;46274;47.168;27.604;2023-04-07T12:23:53;11.97;;;4.40;;
60426;SDS011;46274;47.168;27.604;2023-04-07T12:29:56;6.03;;;3.50;;
60426;SDS011;46274;47.168;27.604;2023-04-07T12:35:58;11.07;;;3.63;;
60426;SDS011;46274;47.168;27.604;2023-04-07T12:42:01;7.33;;;4.73;;
60426;SDS011;46274;47.168;27.604;2023-04-07T12:48:03;9.27;;;5.77;;
60426;SDS011;46274;47.168;27.604;2023-04-07T12:54:06;8.70;;;5.30;;
60426;SDS011;46274;47.168;27.604;2023-04-07T13:00:08;11.37;;;6.53;;
60426;SDS011;46274;47.168;27.604;2023-04-07T13:06:12;9.30;;;6.00;;
60426;SDS011;46274;47.168;27.604;2023-04-07T13:12:15;10.93;;;6.80;;
60426;SDS011;46274;47.168;27.604;2023-04-07T13:18:17;10.77;;;7.10;;
60426;SDS011;46274;47.168;27.604;2023-04-07T13:24:21;10.87;;;7.10;;
60426;SDS011;46274;47.168;27.604;2023-04-07T13:30:24;11.60;;;7.30;;
60426;SDS011;46274;47.168;27.604;2023-04-07T13:36:28;12.37;;;7.67;;
60426;SDS011;46274;47.168;27.604;2023-04-07T13:42:30;11.70;;;7.10;;
60426;SDS011;46274;47.168;27.604;2023-04-07T13:48:33;13.40;;;8.37;;
60426;SDS011;46274;47.168;27.604;2023-04-07T13:54:35;11.30;;;7.00;;
60426;SDS011;46274;47.168;27.604;2023-04-07T14:00:39;33.03;;;9.73;;
60426;SDS011;46274;47.168;27.604;2023-04-07T14:06:42;14.10;;;8.07;;
60426;SDS011;46274;47.168;27.604;2023-04-07T14:12:46;14.33;;;7.97;;
60426;SDS011;46274;47.168;27.604;2023-04-07T14:18:49;32.57;;;17.37;;
60426;SDS011;46274;47.168;27.604;2023-04-07T14:24:52;24.70;;;12.33;;
60426;SDS011;46274;47.168;27.604;2023-04-07T14:30:56;20.43;;;10.50;;
60426;SDS011;46274;47.168;27.604;2023-04-07T14:36:59;25.03;;;11.87;;
60426;SDS011;46274;47.168;27.604;2023-04-07T14:43:01;19.30;;;9.30;;
60426;SDS011;46274;47.168;27.604;2023-04-07T14:49:07;19.77;;;10.00;;
60426;SDS011;46274;47.168;27.604;2023-04-07T14:55:11;17.27;;;9.70;;
60426;SDS011;46274;47.168;27.604;2023-04-07T15:01:13;18.27;;;8.53;;
60426;SDS011;46274;47.168;27.604;2023-04-07T15:07:16;16.67;;;9.17;;
60426;SDS011;46274;47.168;27.604;2023-04-07T15:13:21;15.23;;;8.17;;
60426;SDS011;46274;47.168;27.604;2023-04-07T15:19:24;15.03;;;8.93;;
60426;SDS011;46274;47.168;27.604;2023-04-07T15:25:26;17.00;;;9.13;;
60426;SDS011;46274;47.168;27.604;2023-04-07T15:31:30;24.73;;;12.63;;
60426;SDS011;46274;47.168;27.604;2023-04-07T15:37:35;30.00;;;16.87;;
60426;SDS011;46274;47.168;27.604;2023-04-07T15:43:42;26.03;;;13.27;;
60426;SDS011;46274;47.168;27.604;2023-04-07T15:49:44;19.80;;;11.20;;
60426;SDS011;46274;47.168;27.604;2023-04-07T15:55:47;26.30;;;13.57;;
60426;SDS011;46274;47.168;27.604;2023-04-07T16:01:49;31.20;;;14.73;;
60426;SDS011;46274;47.168;27.604;2023-04-07T16:07:52;68.73;;;30.97;;
60426;SDS011;46274;47.168;27.604;2023-04-07T16:13:57;39.23;;;20.10;;
60426;SDS011;46274;47.168;27.604;2023-04-07T16:20:02;34.17;;;18.00;;
60426;SDS011;46274;47.168;27.604;2023-04-07T16:26:05;35.40;;;19.53;;
60426;SDS011;46274;47.168;27.604;2023-04-07T16:32:07;26.07;;;14.00;;
60426;SDS011;46274;47.168;27.604;2023-04-07T16:38:12;66.97;;;31.17;;
60426;SDS011;46274;47.168;27.604;2023-04-07T16:44:16;31.53;;;16.33;;
60426;SDS011;46274;47.168;27.604;2023-04-07T16:50:23;43.87;;;18.97;;
60426;SDS011;46274;47.168;27.604;2023-04-07T16:56:25;28.27;;;14.77;;
60426;SDS011;46274;47.168;27.604;2023-04-07T17:02:32;36.07;;;18.70;;
60426;SDS011;46274;47.168;27.604;2023-04-07T17:08:43;33.73;;;18.00;;
60426;SDS011;46274;47.168;27.604;2023-04-07T17:14:45;31.47;;;15.87;;
60426;SDS011;46274;47.168;27.604;2023-04-07T17:20:47;29.10;;;14.57;;
60426;SDS011;46274;47.168;27.604;2023-04-07T17:26:54;62.60;;;29.37;;
60426;SDS011;46274;47.168;27.604;2023-04-07T17:32:57;42.43;;;20.27;;
60426;SDS011;46274;47.168;27.604;2023-04-07T17:39:03;55.30;;;26.77;;
60426;SDS011;46274;47.168;27.604;2023-04-07T17:45:06;80.10;;;39.13;;
60426;SDS011;46274;47.168;27.604;2023-04-07T17:51:13;77.77;;;38.83;;
60426;SDS011;46274;47.168;27.604;2023-04-07T17:57:17;53.60;;;24.93;;
60426;SDS011;46274;47.168;27.604;2023-04-07T18:03:19;48.43;;;24.83;;
60426;SDS011;46274;47.168;27.604;2023-04-07T18:09:24;95.60;;;41.87;;
60426;SDS011;46274;47.168;27.604;2023-04-07T18:15:27;110.57;;;49.13;;
60426;SDS011;46274;47.168;27.604;2023-04-07T18:21:32;44.50;;;24.03;;
60426;SDS011;46274;47.168;27.604;2023-04-07T18:27:35;50.20;;;24.23;;
60426;SDS011;46274;47.168;27.604;2023-04-07T18:33:39;41.20;;;20.67;;
60426;SDS011;46274;47.168;27.604;2023-04-07T18:39:43;53.70;;;24.23;;
60426;SDS011;46274;47.168;27.604;2023-04-07T18:45:45;52.60;;;27.17;;
60426;SDS011;46274;47.168;27.604;2023-04-07T18:51:48;63.33;;;30.97;;
60426;SDS011;46274;47.168;27.604;2023-04-07T18:57:53;67.73;;;30.87;;
60426;SDS011;46274;47.168;27.604;2023-04-07T19:03:55;46.50;;;24.83;;
60426;SDS011;46274;47.168;27.604;2023-04-07T19:09:59;42.40;;;22.70;;
60426;SDS011;46274;47.168;27.604;2023-04-07T19:16:01;61.63;;;32.40;;
60426;SDS011;46274;47.168;27.604;2023-04-07T19:22:05;50.40;;;25.63;;
60426;SDS011;46274;47.168;27.604;2023-04-07T19:28:08;51.20;;;25.97;;
60426;SDS011;46274;47.168;27.604;2023-04-07T19:34:10;55.50;;;28.67;;
60426;SDS011;46274;47.168;27.604;2023-04-07T19:40:17;67.10;;;28.93;;
60426;SDS011;46274;47.168;27.604;2023-04-07T19:46:19;56.67;;;25.73;;
60426;SDS011;46274;47.168;27.604;2023-04-07T19:52:22;73.27;;;34.90;;
60426;SDS011;46274;47.168;27.604;2023-04-07T19:58:25;66.23;;;31.37;;
60426;SDS011;46274;47.168;27.604;2023-04-07T20:04:28;51.43;;;25.97;;
60426;SDS011;46274;47.168;27.604;2023-04-07T20:10:30;55.73;;;27.03;;
60426;SDS011;46274;47.168;27.604;2023-04-07T20:16:32;50.23;;;23.43;;
60426;SDS011;46274;47.168;27.604;2023-04-07T20:22:36;65.47;;;30.50;;
60426;SDS011;46274;47.168;27.604;2023-04-07T20:28:38;38.77;;;19.40;;
60426;SDS011;46274;47.168;27.604;2023-04-07T20:34:43;59.77;;;28.67;;
60426;SDS011;46274;47.168;27.604;2023-04-07T20:40:46;67.20;;;31.10;;
60426;SDS011;46274;47.168;27.604;2023-04-07T20:46:49;35.57;;;19.80;;
60426;SDS011;46274;47.168;27.604;2023-04-07T20:52:52;51.67;;;23.53;;
60426;SDS011;46274;47.168;27.604;2023-04-07T20:58:55;66.57;;;29.83;;
60426;SDS011;46274;47.168;27.604;2023-04-07T21:04:57;51.03;;;24.73;;
60426;SDS011;46274;47.168;27.604;2023-04-07T21:11:01;51.30;;;25.43;;
60426;SDS011;46274;47.168;27.604;2023-04-07T21:17:06;36.03;;;19.37;;
60426;SDS011;46274;47.168;27.604;2023-04-07T21:23:08;47.03;;;24.17;;
60426;SDS011;46274;47.168;27.604;2023-04-07T21:29:11;52.03;;;25.47;;
60426;SDS011;46274;47.168;27.604;2023-04-07T21:35:16;60.10;;;27.87;;
60426;SDS011;46274;47.168;27.604;2023-04-07T21:41:20;98.67;;;41.43;;
60426;SDS011;46274;47.168;27.604;2023-04-07T21:47:22;427.97;;;53.13;;
60426;SDS011;46274;47.168;27.604;2023-04-07T21:53:25;55.70;;;27.80;;
60426;SDS011;46274;47.168;27.604;2023-04-07T21:59:28;115.57;;;37.90;;
60426;SDS011;46274;47.168;27.604;2023-04-07T22:05:32;86.63;;;37.03;;
60426;SDS011;46274;47.168;27.604;2023-04-07T22:11:36;129.07;;;43.73;;
60426;SDS011;46274;47.168;27.604;2023-04-07T22:17:39;57.20;;;27.30;;
60426;SDS011;46274;47.168;27.604;2023-04-07T22:23:42;53.63;;;26.77;;
60426;SDS011;46274;47.168;27.604;2023-04-07T22:29:45;97.67;;;44.03;;
60426;SDS011;46274;47.168;27.604;2023-04-07T22:35:47;61.70;;;30.33;;
60426;SDS011;46274;47.168;27.604;2023-04-07T22:41:49;86.17;;;39.37;;
60426;SDS011;46274;47.168;27.604;2023-04-07T22:47:54;54.90;;;27.50;;
60426;SDS011;46274;47.168;27.604;2023-04-07T22:53:56;65.83;;;32.80;;
60426;SDS011;46274;47.168;27.604;2023-04-07T22:59:59;49.73;;;23.70;;
60426;SDS011;46274;47.168;27.604;2023-04-07T23:06:01;53.90;;;24.87;;
60426;SDS011;46274;47.168;27.604;2023-04-07T23:12:05;476.10;;;31.73;;
60426;SDS011;46274;47.168;27.604;2023-04-07T23:18:07;27.40;;;13.83;;
60426;SDS011;46274;47.168;27.604;2023-04-07T23:24:10;19.07;;;10.60;;
60426;SDS011;46274;47.168;27.604;2023-04-07T23:30:15;77.43;;;21.67;;
60426;SDS011;46274;47.168;27.604;2023-04-07T23:36:18;48.50;;;23.03;;
60426;SDS011;46274;47.168;27.604;2023-04-07T23:42:20;49.23;;;23.47;;
60426;SDS011;46274;47.168;27.604;2023-04-07T23:48:22;59.20;;;24.67;;
60426;SDS011;46274;47.168;27.604;2023-04-07T23:54:27;39.60;;;19.40;;
